createdAt,value
2022-11-20T00:01:42.705Z,5.88
2022-11-20T00:04:13.196Z,5.93
2022-11-20T00:06:41.598Z,5.99
2022-11-20T00:09:12.592Z,5.98
2022-11-20T00:11:41.097Z,5.99
2022-11-20T00:14:13.254Z,5.98
2022-11-20T00:16:41.648Z,6.00
2022-11-20T00:19:10.469Z,5.98
2022-11-20T00:21:38.999Z,5.94
2022-11-20T00:24:10.360Z,5.79
2022-11-20T00:26:38.934Z,5.86
2022-11-20T00:29:07.773Z,5.86
2022-11-20T00:31:37.722Z,5.86
2022-11-20T00:34:06.890Z,5.89
2022-11-20T00:36:36.268Z,5.90
2022-11-20T00:39:05.496Z,5.92
2022-11-20T00:41:33.889Z,5.94
2022-11-20T00:44:03.366Z,5.96
2022-11-20T00:46:31.753Z,5.98
2022-11-20T00:49:02.190Z,5.93
2022-11-20T00:51:31.078Z,6.04
2022-11-20T00:54:00.975Z,6.02
2022-11-20T00:56:30.631Z,6.04
2022-11-20T00:59:02.585Z,6.06
2022-11-20T01:01:31.678Z,6.10
2022-11-20T01:04:02.257Z,6.09
2022-11-20T01:06:32.415Z,6.06
2022-11-20T01:09:03.911Z,6.05
2022-11-20T01:11:34.672Z,6.01
2022-11-20T01:14:05.630Z,5.95
2022-11-20T01:16:35.299Z,5.90
2022-11-20T01:19:08.377Z,5.91
2022-11-20T01:21:39.339Z,5.91
2022-11-20T01:24:10.029Z,5.79
2022-11-20T01:26:40.663Z,5.83
2022-11-20T01:29:11.009Z,5.87
2022-11-20T01:31:39.851Z,5.88
2022-11-20T01:34:13.222Z,5.88
2022-11-20T01:36:42.771Z,5.89
2022-11-20T01:39:14.338Z,5.88
2022-11-20T01:42:10.381Z,5.85
2022-11-20T01:44:53.128Z,5.84
2022-11-20T01:47:27.615Z,5.85
2022-11-20T01:50:02.754Z,5.80
2022-11-20T01:52:38.106Z,5.89
2022-11-20T01:55:11.622Z,5.85
2022-11-20T01:57:42.141Z,5.82
2022-11-20T02:00:15.040Z,5.82
2022-11-20T02:02:47.938Z,5.80
2022-11-20T02:05:25.069Z,5.81
2022-11-20T02:07:56.800Z,5.80
2022-11-20T02:10:25.610Z,5.80
2022-11-20T02:13:12.933Z,5.79
2022-11-20T02:15:42.537Z,5.81
2022-11-20T02:18:12.611Z,5.84
2022-11-20T02:20:44.182Z,5.86
2022-11-20T02:23:15.478Z,5.86
2022-11-20T02:25:48.272Z,5.91
2022-11-20T02:28:19.115Z,5.93
2022-11-20T02:30:47.497Z,5.92
2022-11-20T02:33:16.978Z,5.92
2022-11-20T02:35:47.846Z,5.91
2022-11-20T02:38:17.374Z,5.90
2022-11-20T02:40:52.693Z,5.90
2022-11-20T02:43:24.604Z,5.92
2022-11-20T02:45:53.047Z,5.92
2022-11-20T02:48:25.138Z,5.93
2022-11-20T02:50:53.775Z,5.94
2022-11-20T02:53:23.264Z,5.95
2022-11-20T02:55:53.006Z,5.94
2022-11-20T02:58:22.366Z,5.95
2022-11-20T03:00:51.436Z,5.95
2022-11-20T03:03:20.446Z,5.94
2022-11-20T03:05:49.249Z,5.91
2022-11-20T03:08:17.672Z,5.91
2022-11-20T03:10:46.516Z,5.95
2022-11-20T03:13:16.829Z,5.93
2022-11-20T03:15:45.814Z,5.97
2022-11-20T03:18:14.655Z,5.98
2022-11-20T03:20:42.980Z,5.97
2022-11-20T03:23:12.241Z,5.98
2022-11-20T03:25:41.009Z,5.96
2022-11-20T03:28:09.387Z,5.97
2022-11-20T03:30:39.634Z,5.85
2022-11-20T03:33:08.032Z,6.04
2022-11-20T03:35:37.060Z,6.06
2022-11-20T03:38:05.923Z,6.12
2022-11-20T03:40:36.466Z,6.11
2022-11-20T03:43:05.343Z,6.10
2022-11-20T03:45:33.929Z,6.17
2022-11-20T03:48:04.597Z,6.19
2022-11-20T03:50:32.953Z,6.20
2022-11-20T03:53:01.781Z,6.24
2022-11-20T03:55:30.921Z,6.25
2022-11-20T03:57:59.270Z,6.22
2022-11-20T04:00:28.531Z,6.24
2022-11-20T04:02:59.857Z,6.23
2022-11-20T04:05:30.790Z,6.23
2022-11-20T04:08:00.040Z,6.23
2022-11-20T04:10:28.851Z,6.22
2022-11-20T04:12:57.212Z,6.21
2022-11-20T04:15:26.297Z,6.20
2022-11-20T04:17:55.905Z,6.16
2022-11-20T04:20:24.924Z,6.11
2022-11-20T04:22:56.641Z,6.11
2022-11-20T04:25:25.493Z,6.11
2022-11-20T04:27:53.870Z,6.11
2022-11-20T04:30:23.275Z,6.13
2022-11-20T04:32:51.620Z,6.10
2022-11-20T04:35:20.797Z,6.14
2022-11-20T04:37:49.216Z,6.14
2022-11-20T04:40:19.410Z,6.19
2022-11-20T04:42:47.766Z,6.19
2022-11-20T04:45:16.612Z,6.18
2022-11-20T04:47:45.262Z,6.19
2022-11-20T04:50:14.498Z,6.15
2022-11-20T04:52:42.856Z,6.14
2022-11-20T04:55:11.546Z,6.15
2022-11-20T04:57:42.200Z,6.11
2022-11-20T05:00:11.742Z,6.08
2022-11-20T05:02:41.141Z,6.10
2022-11-20T05:05:10.310Z,6.07
2022-11-20T05:07:38.810Z,6.07
2022-11-20T05:10:09.197Z,6.11
2022-11-20T05:12:37.597Z,6.12
2022-11-20T05:15:08.657Z,6.16
2022-11-20T05:17:37.215Z,6.17
2022-11-20T05:20:06.401Z,6.16
2022-11-20T05:22:35.049Z,6.15
2022-11-20T05:25:03.407Z,6.12
2022-11-20T05:27:31.985Z,6.13
2022-11-20T05:30:00.843Z,6.12
2022-11-20T05:32:30.550Z,6.12
2022-11-20T05:34:59.477Z,6.15
2022-11-20T05:37:28.371Z,6.12
2022-11-20T05:39:57.270Z,6.11
2022-11-20T05:42:34.599Z,6.08
2022-11-20T05:45:05.749Z,6.07
2022-11-20T05:47:36.471Z,6.08
2022-11-20T05:50:05.779Z,6.07
2022-11-20T05:52:34.875Z,6.04
2022-11-20T05:55:03.298Z,5.96
2022-11-20T05:57:33.023Z,6.05
2022-11-20T06:00:01.650Z,6.05
2022-11-20T06:02:32.755Z,6.05
2022-11-20T06:05:02.578Z,6.04
2022-11-20T06:07:31.035Z,6.05
2022-11-20T06:09:59.858Z,6.05
2022-11-20T06:12:28.538Z,6.04
2022-11-20T06:14:57.309Z,6.03
2022-11-20T06:17:26.152Z,6.07
2022-11-20T06:19:54.843Z,6.06
2022-11-20T06:22:24.581Z,6.04
2022-11-20T06:24:54.006Z,6.05
2022-11-20T06:27:22.711Z,6.10
2022-11-20T06:29:51.092Z,6.09
2022-11-20T06:32:20.342Z,6.12
2022-11-20T06:34:49.163Z,6.10
2022-11-20T06:37:17.602Z,6.06
2022-11-20T06:39:47.308Z,6.05
2022-11-20T06:42:16.487Z,6.01
2022-11-20T06:44:45.067Z,6.02
2022-11-20T06:47:13.919Z,6.04
2022-11-20T06:49:42.962Z,6.00
2022-11-20T06:52:11.356Z,5.99
2022-11-20T06:54:40.319Z,6.00
2022-11-20T06:57:10.048Z,6.00
2022-11-20T06:59:38.946Z,6.01
2022-11-20T07:02:07.447Z,5.98
2022-11-20T07:04:36.515Z,5.99
2022-11-20T07:07:04.897Z,6.01
2022-11-20T07:09:34.793Z,6.02
2022-11-20T07:12:03.481Z,6.01
2022-11-20T07:14:33.218Z,6.04
2022-11-20T07:17:02.363Z,6.08
2022-11-20T07:19:30.710Z,6.12
2022-11-20T07:22:00.009Z,6.13
2022-11-20T07:24:28.529Z,6.09
2022-11-20T07:26:57.795Z,6.14
2022-11-20T07:29:26.198Z,6.15
2022-11-20T07:31:56.611Z,6.19
2022-11-20T07:34:25.106Z,6.23
2022-11-20T07:36:53.821Z,6.23
2022-11-20T07:39:22.390Z,6.24
2022-11-20T07:41:52.051Z,6.28
2022-11-20T07:44:20.493Z,6.37
2022-11-20T07:46:48.846Z,6.77
2022-11-20T07:49:19.668Z,7.11
2022-11-20T07:51:51.862Z,7.28
2022-11-20T07:54:21.445Z,7.01
2022-11-20T07:56:50.780Z,6.86
2022-11-20T07:59:19.298Z,6.77
2022-11-20T08:01:48.387Z,6.60
2022-11-20T08:04:17.347Z,6.67
2022-11-20T08:06:48.399Z,6.61
2022-11-20T08:09:17.164Z,6.58
2022-11-20T08:12:03.195Z,6.52
2022-11-20T08:14:31.964Z,6.28
2022-11-20T08:17:00.322Z,6.52
2022-11-20T08:19:29.581Z,6.53
2022-11-20T08:21:59.577Z,6.47
2022-11-20T08:24:29.006Z,6.49
2022-11-20T08:27:00.205Z,6.41
2022-11-20T08:29:29.275Z,6.48
2022-11-20T08:31:58.216Z,6.36
2022-11-20T08:34:26.592Z,6.39
2022-11-20T08:36:55.930Z,6.39
2022-11-20T08:39:25.741Z,6.48
2022-11-20T08:41:54.785Z,6.46
2022-11-20T08:44:23.280Z,6.61
2022-11-20T08:46:51.970Z,6.63
2022-11-20T08:49:20.766Z,6.60
2022-11-20T08:51:53.114Z,6.55
2022-11-20T08:54:22.962Z,6.56
2022-11-20T08:56:53.373Z,6.66
2022-11-20T09:00:04.464Z,6.63
2022-11-20T09:02:11.178Z,6.63
2022-11-20T09:04:39.882Z,6.70
2022-11-20T09:07:08.356Z,6.70
2022-11-20T09:09:36.942Z,6.75
2022-11-20T09:12:07.660Z,6.70
2022-11-20T09:14:36.040Z,6.70
2022-11-20T09:17:05.436Z,6.72
2022-11-20T09:22:22.579Z,6.55
2022-11-20T09:24:51.006Z,6.59
2022-11-20T09:27:22.629Z,6.60
2022-11-20T09:29:51.562Z,6.67
2022-11-20T09:32:20.452Z,6.68
2022-11-20T09:34:49.156Z,6.77
2022-11-20T09:37:18.069Z,6.85
2022-11-20T09:39:46.442Z,6.94
2022-11-20T09:42:40.305Z,6.94
2022-11-20T09:45:24.730Z,6.95
2022-11-20T09:48:12.675Z,6.94
2022-11-20T09:50:49.345Z,6.99
2022-11-20T09:53:24.521Z,6.96
2022-11-20T09:55:53.782Z,7.03
2022-11-20T09:58:31.433Z,7.11
2022-11-20T10:01:06.157Z,7.23
2022-11-20T10:03:43.606Z,7.24
2022-11-20T10:06:18.111Z,7.34
2022-11-20T10:08:55.365Z,7.39
2022-11-20T10:11:34.654Z,7.30
2022-11-20T10:14:14.655Z,7.33
2022-11-20T10:17:00.026Z,7.37
2022-11-20T10:19:45.342Z,7.35
2022-11-20T10:22:27.823Z,7.37
2022-11-20T10:24:58.821Z,7.38
2022-11-20T10:27:54.046Z,7.46
2022-11-20T10:30:26.581Z,7.51
2022-11-20T10:33:00.429Z,7.46
2022-11-20T10:35:37.676Z,7.43
2022-11-20T10:38:15.306Z,7.37
2022-11-20T10:40:46.472Z,7.30
2022-11-20T10:43:21.322Z,7.35
2022-11-20T10:45:58.869Z,7.43
2022-11-20T10:48:29.800Z,7.47
2022-11-20T10:51:13.770Z,7.65
2022-11-20T10:53:59.789Z,7.70
2022-11-20T10:56:36.824Z,7.76
2022-11-20T10:59:21.834Z,7.73
2022-11-20T11:01:52.603Z,7.66
2022-11-20T11:04:32.190Z,7.66
2022-11-20T11:07:08.999Z,7.39
2022-11-20T11:09:43.267Z,7.61
2022-11-20T11:12:13.324Z,7.56
2022-11-20T11:14:46.857Z,7.61
2022-11-20T11:17:31.592Z,7.63
2022-11-20T11:20:09.305Z,7.69
2022-11-20T11:22:47.394Z,7.70
2022-11-20T11:25:28.594Z,7.71
2022-11-20T11:27:59.098Z,7.65
2022-11-20T11:30:31.453Z,7.69
2022-11-20T11:33:11.725Z,7.82
2022-11-20T11:35:51.144Z,8.10
2022-11-20T11:38:25.041Z,8.26
2022-11-20T11:40:57.417Z,8.42
2022-11-20T11:43:46.267Z,8.30
2022-11-20T11:46:27.841Z,8.18
2022-11-20T11:49:02.409Z,8.22
2022-11-20T11:51:38.906Z,8.23
2022-11-20T11:54:16.264Z,8.22
2022-11-20T11:56:46.310Z,8.10
2022-11-20T11:59:25.120Z,8.06
2022-11-20T12:01:59.960Z,8.04
2022-11-20T12:04:44.311Z,8.11
2022-11-20T12:07:44.739Z,8.14
2022-11-20T12:10:14.728Z,8.08
2022-11-20T12:12:48.059Z,8.06
2022-11-20T12:15:27.418Z,8.10
2022-11-20T12:17:56.909Z,8.09
2022-11-20T12:20:31.155Z,8.03
2022-11-20T12:23:09.847Z,8.01
2022-11-20T12:25:41.129Z,7.97
2022-11-20T12:28:27.393Z,7.93
2022-11-20T12:31:13.465Z,7.92
2022-11-20T12:33:56.738Z,7.80
2022-11-20T12:36:38.915Z,7.79
2022-11-20T12:39:24.399Z,7.74
2022-11-20T12:42:33.758Z,7.71
2022-11-20T12:45:17.023Z,7.64
2022-11-20T12:47:58.355Z,7.63
2022-11-20T12:50:53.207Z,7.64
2022-11-20T12:53:35.869Z,7.55
2022-11-20T12:56:15.089Z,7.56
2022-11-20T12:58:50.430Z,7.61
2022-11-20T13:01:42.108Z,7.59
2022-11-20T13:04:21.652Z,7.58
2022-11-20T13:06:51.288Z,7.56
2022-11-20T13:09:24.651Z,7.53
2022-11-20T13:12:05.717Z,7.50
2022-11-20T13:14:39.193Z,7.50
2022-11-20T13:17:13.706Z,7.50
2022-11-20T13:19:43.505Z,7.45
2022-11-20T13:22:12.219Z,7.46
2022-11-20T13:24:52.840Z,7.45
2022-11-20T13:27:24.126Z,7.43
2022-11-20T13:30:05.419Z,7.43
2022-11-20T13:32:33.975Z,7.37
2022-11-20T13:35:05.308Z,7.32
2022-11-20T13:37:36.118Z,7.31
2022-11-20T13:40:15.506Z,6.98
2022-11-20T13:42:47.701Z,7.31
2022-11-20T13:45:26.305Z,7.32
2022-11-20T13:48:22.951Z,7.33
2022-11-20T13:51:03.507Z,7.29
2022-11-20T13:53:54.900Z,7.28
2022-11-20T13:56:31.410Z,7.26
2022-11-20T13:59:14.747Z,6.80
2022-11-20T14:01:48.814Z,7.22
2022-11-20T14:04:22.903Z,7.18
2022-11-20T14:06:51.949Z,7.15
2022-11-20T14:09:29.643Z,7.13
2022-11-20T14:11:59.716Z,7.06
2022-11-20T14:14:30.477Z,7.15
2022-11-20T14:17:08.227Z,7.15
2022-11-20T14:19:38.785Z,7.12
2022-11-20T14:22:17.857Z,7.14
2022-11-20T14:24:47.365Z,7.16
2022-11-20T14:27:20.476Z,7.14
2022-11-20T14:29:52.793Z,7.13
2022-11-20T14:32:24.231Z,7.14
2022-11-20T14:34:53.330Z,7.08
2022-11-20T14:37:26.022Z,7.10
2022-11-20T14:39:56.555Z,7.11
2022-11-20T14:42:27.713Z,7.09
2022-11-20T14:44:59.781Z,7.05
2022-11-20T14:47:31.542Z,7.06
2022-11-20T14:50:08.664Z,7.07
2022-11-20T14:52:39.477Z,7.11
2022-11-20T14:55:10.788Z,7.13
2022-11-20T14:57:41.844Z,7.16
2022-11-20T15:00:21.734Z,7.14
2022-11-20T15:02:52.668Z,7.10
2022-11-20T15:05:23.615Z,7.10
2022-11-20T15:08:06.379Z,7.11
2022-11-20T15:10:35.831Z,7.09
2022-11-20T15:13:12.745Z,7.06
2022-11-20T15:15:47.890Z,7.13
2022-11-20T15:18:18.652Z,7.11
2022-11-20T15:20:48.586Z,7.03
2022-11-20T15:23:20.348Z,7.07
2022-11-20T15:25:49.790Z,7.08
2022-11-20T15:28:25.672Z,7.05
2022-11-20T15:30:54.570Z,7.07
2022-11-20T15:33:23.091Z,7.03
2022-11-20T15:35:51.977Z,7.01
2022-11-20T15:38:20.525Z,7.01
2022-11-20T15:40:49.902Z,7.03
2022-11-20T15:43:20.334Z,7.03
2022-11-20T15:45:52.591Z,7.00
2022-11-20T15:48:24.538Z,7.02
2022-11-20T15:50:56.267Z,7.04
2022-11-20T15:53:25.183Z,7.04
2022-11-20T15:55:53.746Z,7.03
2022-11-20T15:58:25.674Z,7.02
2022-11-20T16:00:55.167Z,6.99
2022-11-20T16:03:24.354Z,7.00
2022-11-20T16:05:52.776Z,6.99
2022-11-20T16:08:21.161Z,7.01
2022-11-20T16:10:49.614Z,7.03
2022-11-20T16:13:36.869Z,7.03
2022-11-20T16:16:10.595Z,7.06
2022-11-20T16:18:39.417Z,7.07
2022-11-20T16:21:14.148Z,7.04
2022-11-20T16:23:43.995Z,7.04
2022-11-20T16:26:13.503Z,7.03
2022-11-20T16:28:43.127Z,6.93
2022-11-20T16:31:15.247Z,6.91
2022-11-20T16:33:45.098Z,6.89
2022-11-20T16:36:15.095Z,6.87
2022-11-20T16:38:44.106Z,6.81
2022-11-20T16:41:15.208Z,6.82
2022-11-20T16:43:48.587Z,6.79
2022-11-20T16:46:20.128Z,6.80
2022-11-20T16:48:55.254Z,6.75
2022-11-20T16:51:24.393Z,6.72
2022-11-20T16:53:53.422Z,6.68
2022-11-20T16:56:23.774Z,6.71
2022-11-20T16:58:52.954Z,6.70
2022-11-20T17:01:25.309Z,6.71
2022-11-20T17:03:59.666Z,6.73
2022-11-20T17:06:29.954Z,6.66
2022-11-20T17:08:59.740Z,6.72
2022-11-20T17:11:29.293Z,6.74
2022-11-20T17:14:01.013Z,6.75
2022-11-20T17:16:31.821Z,6.75
2022-11-20T17:19:03.576Z,6.78
2022-11-20T17:21:32.668Z,6.75
2022-11-20T17:24:03.292Z,6.78
2022-11-20T17:26:32.548Z,6.80
2022-11-20T17:29:02.403Z,6.81
2022-11-20T17:31:34.234Z,6.83
2022-11-20T17:34:02.998Z,6.79
2022-11-20T17:36:32.884Z,6.69
2022-11-20T17:39:01.517Z,6.60
2022-11-20T17:41:31.396Z,6.51
2022-11-20T17:44:01.367Z,6.43
2022-11-20T17:46:34.059Z,6.39
2022-11-20T17:49:03.622Z,6.45
2022-11-20T17:51:36.547Z,6.45
2022-11-20T17:54:07.282Z,6.40
2022-11-20T17:56:54.658Z,6.41
2022-11-20T17:59:23.645Z,6.41
2022-11-20T18:01:56.805Z,6.41
2022-11-20T18:04:28.697Z,6.44
2022-11-20T18:06:57.861Z,6.46
2022-11-20T18:09:26.730Z,6.48
2022-11-20T18:11:55.110Z,6.48
2022-11-20T18:14:32.991Z,6.50
2022-11-20T18:17:05.238Z,6.52
2022-11-20T18:19:40.261Z,6.46
2022-11-20T18:22:14.330Z,6.48
2022-11-20T18:24:43.797Z,6.49
2022-11-20T18:27:16.423Z,6.49
2022-11-20T18:29:48.508Z,6.49
2022-11-20T18:32:18.627Z,6.48
2022-11-20T18:34:47.649Z,6.31
2022-11-20T18:37:16.629Z,6.48
2022-11-20T18:39:45.999Z,6.41
2022-11-20T18:42:33.434Z,6.33
2022-11-20T18:45:04.679Z,6.27
2022-11-20T18:47:39.249Z,6.20
2022-11-20T18:50:09.753Z,6.16
2022-11-20T18:52:41.804Z,6.08
2022-11-20T18:55:11.991Z,6.03
2022-11-20T18:57:41.058Z,6.03
2022-11-20T19:00:11.023Z,6.07
2022-11-20T19:05:30.344Z,6.06
2022-11-20T19:07:58.707Z,5.99
2022-11-20T19:10:27.670Z,6.00
2022-11-20T19:12:58.468Z,6.03
2022-11-20T19:15:28.209Z,6.02
2022-11-20T19:17:58.770Z,6.04
2022-11-20T19:20:27.677Z,6.04
2022-11-20T19:22:56.592Z,6.01
2022-11-20T19:25:24.964Z,5.99
2022-11-20T19:27:54.322Z,5.99
2022-11-20T19:30:22.803Z,5.99
2022-11-20T19:32:51.619Z,5.99
2022-11-20T19:35:21.417Z,5.97
2022-11-20T19:37:50.103Z,5.96
2022-11-20T19:40:18.957Z,5.96
2022-11-20T19:42:47.318Z,5.94
2022-11-20T19:45:16.557Z,5.92
2022-11-20T19:48:06.701Z,5.85
2022-11-20T19:50:36.009Z,5.85
2022-11-20T19:53:04.522Z,5.83
2022-11-20T19:55:33.449Z,5.77
2022-11-20T19:58:03.166Z,5.78
2022-11-20T20:00:33.014Z,5.73
2022-11-20T20:03:01.589Z,5.67
2022-11-20T20:05:30.340Z,5.65
2022-11-20T20:08:00.172Z,5.58
2022-11-20T20:10:29.065Z,5.51
2022-11-20T20:12:57.613Z,5.50
2022-11-20T20:15:26.519Z,5.49
2022-11-20T20:17:55.334Z,5.47
2022-11-20T20:20:24.138Z,5.51
2022-11-20T20:22:52.600Z,5.54
2022-11-20T20:25:22.959Z,5.45
2022-11-20T20:27:51.384Z,5.48
2022-11-20T20:30:20.143Z,5.52
2022-11-20T20:32:53.266Z,5.51
2022-11-20T20:35:25.468Z,5.51
2022-11-20T20:37:53.856Z,5.50
2022-11-20T20:40:24.731Z,5.50
2022-11-20T20:42:53.118Z,5.50
2022-11-20T20:45:22.215Z,5.49
2022-11-20T20:47:50.586Z,5.49
2022-11-20T20:50:19.478Z,5.45
2022-11-20T20:52:48.235Z,5.43
2022-11-20T20:55:16.735Z,5.41
2022-11-20T20:57:46.855Z,5.37
2022-11-20T21:00:16.859Z,5.39
2022-11-20T21:02:46.607Z,5.25
2022-11-20T21:05:15.370Z,5.31
2022-11-20T21:07:58.384Z,5.33
2022-11-20T21:10:26.993Z,5.32
2022-11-20T21:12:57.073Z,5.25
2022-11-20T21:15:25.460Z,5.22
2022-11-20T21:17:54.031Z,5.21
2022-11-20T21:20:40.723Z,5.18
2022-11-20T21:23:10.371Z,5.23
2022-11-20T21:25:39.525Z,5.28
2022-11-20T21:28:13.084Z,5.21
2022-11-20T21:30:44.530Z,5.29
2022-11-20T21:33:12.913Z,5.34
2022-11-20T21:35:41.892Z,5.19
2022-11-20T21:38:10.870Z,5.38
2022-11-20T21:40:39.444Z,5.40
2022-11-20T21:43:09.176Z,5.42
2022-11-20T21:45:38.261Z,5.40
2022-11-20T21:48:07.392Z,5.45
2022-11-20T21:50:36.308Z,5.44
2022-11-20T21:53:04.699Z,5.45
2022-11-20T21:55:33.546Z,5.42
2022-11-20T21:58:01.921Z,5.40
2022-11-20T22:00:31.635Z,5.41
2022-11-20T22:03:00.338Z,5.47
2022-11-20T22:05:28.790Z,5.51
2022-11-20T22:07:57.545Z,5.51
2022-11-20T22:10:27.895Z,5.52
2022-11-20T22:13:17.233Z,5.35
2022-11-20T22:16:00.359Z,5.40
2022-11-20T22:18:29.712Z,5.34
2022-11-20T22:20:58.683Z,5.29
2022-11-20T22:23:27.155Z,5.29
2022-11-20T22:25:55.816Z,5.26
2022-11-20T22:28:24.653Z,5.25
2022-11-20T22:30:54.329Z,5.27
2022-11-20T22:33:23.479Z,5.20
2022-11-20T22:35:51.931Z,5.21
2022-11-20T22:38:20.563Z,5.16
2022-11-20T22:40:48.949Z,5.09
2022-11-20T22:43:17.651Z,5.11
2022-11-20T22:45:46.691Z,5.10
2022-11-20T22:48:16.814Z,5.10
2022-11-20T22:50:46.515Z,5.08
2022-11-20T22:53:15.209Z,5.06
2022-11-20T22:55:43.589Z,5.06
2022-11-20T22:58:12.640Z,5.04
2022-11-20T23:00:41.007Z,5.06
2022-11-20T23:03:09.866Z,5.02
2022-11-20T23:05:39.751Z,4.98
2022-11-20T23:08:08.404Z,4.96
2022-11-20T23:10:36.820Z,5.01
2022-11-20T23:13:05.793Z,4.99
2022-11-20T23:15:35.434Z,4.99
2022-11-20T23:18:04.237Z,4.91
2022-11-20T23:20:33.406Z,4.91
2022-11-20T23:23:03.634Z,4.88
2022-11-20T23:25:32.257Z,4.87
2022-11-20T23:28:00.599Z,4.92
2022-11-20T23:30:29.191Z,4.92
2022-11-20T23:32:58.370Z,4.97
2022-11-20T23:35:26.780Z,4.90
2022-11-20T23:37:55.851Z,4.84
2022-11-20T23:40:25.540Z,4.76
2022-11-20T23:43:12.329Z,4.78
2022-11-20T23:45:40.739Z,4.74
2022-11-20T23:48:10.097Z,4.62
2022-11-20T23:50:38.571Z,4.78
2022-11-20T23:53:08.281Z,4.74
2022-11-20T23:55:38.042Z,4.74
2022-11-20T23:58:07.063Z,4.75
